Time;durP1;ratioP1;P1;durP2;ratioP2;P2;SDS_P1;SDS_P2;PMS_P1;PMS_P2;Temp;Humidity;BMP_temperature;BMP_pressure;BME280_temperature;BME280_humidity;BME280_pressure;Samples;Min_cycle;Max_cycle;Signal;HPM_P1;HPM_P2
2021/12/18 00:01:04;;;;;;;4.75;3.70;;;;;;;1.85;91.34;99993.62;1763136;79;21051;-79
2021/12/18 00:03:33;;;;;;;5.30;3.52;;;;;;;1.86;91.14;100008.52;1777114;80;21054;-77
2021/12/18 00:06:00;;;;;;;3.58;3.27;;;;;;;1.80;90.67;99999.48;1779775;78;21231;-79
2021/12/18 00:08:26;;;;;;;3.60;2.40;;;;;;;1.81;90.74;100004.28;1758111;79;21078;-77
2021/12/18 00:10:55;;;;;;;5.05;2.60;;;;;;;1.79;90.38;99999.66;1764180;79;21029;-80
2021/12/18 00:13:22;;;;;;;8.53;4.80;;;;;;;1.77;89.98;99999.03;1791743;79;21026;-78
2021/12/18 00:15:49;;;;;;;12.15;6.53;;;;;;;1.75;90.03;100005.34;1791556;80;21295;-79
2021/12/18 00:18:15;;;;;;;8.95;4.28;;;;;;;1.75;90.09;100013.80;1789369;80;21537;-77
2021/12/18 00:20:43;;;;;;;5.62;3.05;;;;;;;1.79;90.18;100019.55;1771188;80;21060;-76
2021/12/18 00:23:09;;;;;;;5.90;3.80;;;;;;;1.82;90.17;100000.63;1739371;80;20963;-76
2021/12/18 00:25:35;;;;;;;4.20;2.45;;;;;;;1.83;89.99;100011.03;1764149;80;21046;-77
2021/12/18 00:28:02;;;;;;;4.30;2.92;;;;;;;1.82;89.92;100019.19;1787022;80;21026;-78
2021/12/18 00:30:30;;;;;;;6.17;3.30;;;;;;;1.79;89.74;100012.41;1764126;80;21154;-78
2021/12/18 00:32:57;;;;;;;5.67;3.65;;;;;;;1.75;89.93;100019.92;1783866;80;21605;-78
2021/12/18 00:35:23;;;;;;;7.03;3.12;;;;;;;1.72;90.10;100028.26;1775258;80;21042;-80
2021/12/18 00:37:49;;;;;;;3.50;2.58;;;;;;;1.66;90.33;100010.42;1762215;80;21567;-79
2021/12/18 00:40:20;;;;;;;3.67;2.92;;;;;;;1.63;90.51;100007.33;1758262;80;21010;-75
2021/12/18 00:42:50;;;;;;;2.90;2.35;;;;;;;1.62;90.65;100020.26;1786389;80;21166;-76
2021/12/18 00:45:15;;;;;;;2.72;2.25;;;;;;;1.66;90.82;100023.69;1785948;80;21526;-76
2021/12/18 00:47:45;;;;;;;3.80;2.27;;;;;;;1.73;90.87;100019.27;1786690;80;20969;-77
2021/12/18 00:50:16;;;;;;;2.60;2.15;;;;;;;1.77;90.72;100020.25;1764146;80;22214;-76
2021/12/18 00:52:42;;;;;;;3.17;2.00;;;;;;;1.76;90.53;100027.37;1790747;80;21030;-78
2021/12/18 00:55:09;;;;;;;1.82;1.72;;;;;;;1.72;90.54;100036.21;1787269;80;22161;-78
2021/12/18 00:57:36;;;;;;;2.35;2.15;;;;;;;1.70;90.67;100038.21;1783870;80;21035;-76
2021/12/18 01:00:07;;;;;;;3.17;2.27;;;;;;;1.68;90.72;100040.20;1788197;80;20891;-76
2021/12/18 01:02:36;;;;;;;2.98;2.50;;;;;;;1.66;90.69;100030.31;1751501;81;20926;-76
2021/12/18 01:05:05;;;;;;;5.53;2.20;;;;;;;1.65;90.81;100031.31;1749054;81;20981;-82
2021/12/18 01:07:33;;;;;;;3.98;2.22;;;;;;;1.64;90.92;100030.16;1779258;79;20904;-80
2021/12/18 01:10:14;;;;;;;4.08;2.50;;;;;;;1.57;91.18;100037.22;1810972;78;21018;-81
2021/12/18 01:12:37;;;;;;;2.45;2.25;;;;;;;1.55;91.35;100033.41;1818131;78;20955;-80
2021/12/18 01:15:16;;;;;;;4.42;2.65;;;;;;;1.57;91.45;100042.52;1820213;78;21055;-80
2021/12/18 01:22:48;;;;;;;4.72;3.05;;;;;;;1.58;91.45;100030.91;1821870;78;21034;-74
2021/12/18 01:25:12;;;;;;;4.65;3.40;;;;;;;1.53;91.60;100036.77;1786651;79;20998;-82
2021/12/18 01:27:40;;;;;;;4.45;2.90;;;;;;;1.55;91.73;100040.04;1761934;79;21026;-82
2021/12/18 01:30:09;;;;;;;5.25;2.50;;;;;;;1.51;91.77;100041.42;1773879;79;21046;-84
2021/12/18 01:32:35;;;;;;;3.08;2.85;;;;;;;1.53;91.89;100050.02;1784483;79;21176;-85
2021/12/18 01:35:07;;;;;;;4.33;2.70;;;;;;;1.50;91.75;100054.34;1732410;82;21030;-86
2021/12/18 01:37:33;;;;;;;5.40;3.00;;;;;;;1.52;91.87;100043.56;1775874;79;21057;-87
2021/12/18 01:40:03;;;;;;;5.62;3.95;;;;;;;1.54;92.29;100052.14;1825933;78;21445;-85
2021/12/18 01:52:58;;;;;;;6.47;3.40;;;;;;;1.51;92.80;100045.89;1818762;78;22046;-81
2021/12/18 01:55:29;;;;;;;2.00;1.90;;;;;;;1.55;92.74;100047.16;1828606;78;20999;-86
2021/12/18 01:57:56;;;;;;;5.62;2.27;;;;;;;1.56;92.39;100053.63;1828481;78;21100;-77
2021/12/18 02:00:29;;;;;;;3.67;2.83;;;;;;;1.54;92.20;100054.29;1821639;78;21003;-79
2021/12/18 02:02:55;;;;;;;7.53;4.87;;;;;;;1.51;92.08;100060.47;1825969;78;21075;-78
2021/12/18 02:05:22;;;;;;;2.95;2.30;;;;;;;1.51;92.09;100055.17;1804404;78;20991;-78
2021/12/18 02:07:48;;;;;;;2.83;2.25;;;;;;;1.51;92.01;100053.84;1831613;78;21031;-79
2021/12/18 02:10:22;;;;;;;1.72;1.62;;;;;;;1.50;91.86;100054.84;1823626;78;21545;-81
2021/12/18 02:12:55;;;;;;;2.17;1.72;;;;;;;1.46;91.59;100050.91;1822276;78;20971;-83
2021/12/18 02:20:49;;;;;;;6.33;2.85;;;;;;;1.44;91.58;100053.73;1829209;78;21563;-80
2021/12/18 02:23:16;;;;;;;2.75;2.20;;;;;;;1.47;91.70;100054.72;1793982;79;21754;-79
2021/12/18 02:25:45;;;;;;;2.55;1.70;;;;;;;1.46;91.64;100054.89;1816569;79;21456;-78
2021/12/18 02:28:23;;;;;;;3.95;2.30;;;;;;;1.48;91.75;100050.24;1816820;79;21507;-80
2021/12/18 02:30:44;;;;;;;3.77;2.22;;;;;;;1.48;91.79;100058.19;1829216;77;20992;-79
2021/12/18 02:33:11;;;;;;;2.15;1.95;;;;;;;1.43;91.79;100062.72;1843416;77;21017;-79
2021/12/18 02:35:49;;;;;;;2.55;2.00;;;;;;;1.45;91.86;100068.64;1802400;78;21576;-79
2021/12/18 02:39:24;;;;;;;1.70;1.55;;;;;;;1.46;91.62;100078.73;1822598;78;21093;-79
2021/12/18 02:41:22;;;;;;;3.22;2.90;;;;;;;1.42;90.98;100073.48;1793829;78;21024;-77
2021/12/18 02:43:39;;;;;;;1.87;1.47;;;;;;;1.41;90.91;100074.48;1779527;79;21479;-79
2021/12/18 02:46:07;;;;;;;3.02;2.50;;;;;;;1.35;90.38;100085.30;1797743;78;22205;-77
2021/12/18 02:48:37;;;;;;;2.67;1.72;;;;;;;1.37;90.36;100083.31;1816311;79;21203;-77
2021/12/18 02:51:05;;;;;;;2.08;1.72;;;;;;;1.37;90.04;100096.55;1810023;78;21033;-78
2021/12/18 02:53:33;;;;;;;2.10;1.92;;;;;;;1.35;89.11;100088.45;1794552;78;20996;-76
2021/12/18 02:56:03;;;;;;;3.22;2.10;;;;;;;1.33;88.90;100097.09;1809729;78;21516;-75
2021/12/18 02:58:30;;;;;;;4.62;2.50;;;;;;;1.33;88.78;100092.63;1809734;78;21043;-77
2021/12/18 03:00:58;;;;;;;2.77;2.27;;;;;;;1.34;88.45;100112.00;1791247;79;21127;-78
2021/12/18 03:03:28;;;;;;;2.77;1.82;;;;;;;1.30;88.16;100105.72;1764588;81;21603;-78
2021/12/18 03:06:49;;;;;;;2.77;2.50;;;;;;;1.33;88.23;100101.07;1797043;79;21058;-79
2021/12/18 03:08:43;;;;;;;2.52;1.80;;;;;;;1.35;88.26;100102.52;1734398;81;21024;-80
2021/12/18 03:27:18;;;;;;;3.92;2.35;;;;;;;1.26;87.28;100127.45;1830214;77;21108;-78
2021/12/18 03:29:45;;;;;;;6.70;4.30;;;;;;;1.21;86.63;100127.16;1805256;78;21010;-78
2021/12/18 03:32:11;;;;;;;4.78;4.05;;;;;;;1.24;86.85;100127.65;1828317;78;21036;-79
2021/12/18 03:34:39;;;;;;;5.15;4.10;;;;;;;1.22;86.40;100142.06;1800935;78;20971;-76
2021/12/18 03:37:05;;;;;;;2.37;2.15;;;;;;;1.19;86.15;100160.47;1828314;78;21011;-77
2021/12/18 03:39:32;;;;;;;3.02;2.37;;;;;;;1.18;85.47;100140.78;1831706;78;21757;-76
2021/12/18 03:41:58;;;;;;;5.22;4.80;;;;;;;1.21;85.68;100144.38;1831368;78;20919;-80
2021/12/18 03:44:26;;;;;;;4.85;3.52;;;;;;;1.21;85.53;100140.41;1767133;81;20937;-79
2021/12/18 03:46:53;;;;;;;3.72;3.22;;;;;;;1.23;85.27;100143.72;1765983;81;20975;-79
2021/12/18 03:49:19;;;;;;;4.50;2.87;;;;;;;1.24;85.01;100133.45;1822498;78;20957;-78
2021/12/18 03:51:48;;;;;;;2.00;1.87;;;;;;;1.26;84.96;100149.47;1798727;78;21518;-77
2021/12/18 03:54:15;;;;;;;3.62;2.72;;;;;;;1.27;85.01;100147.16;1830280;78;21078;-80
2021/12/18 03:56:43;;;;;;;1.95;1.85;;;;;;;1.24;83.73;100151.99;1804658;78;21432;-79
2021/12/18 03:59:11;;;;;;;6.20;4.33;;;;;;;1.23;83.94;100155.64;1822707;78;21479;-80
2021/12/18 04:01:37;;;;;;;3.15;2.75;;;;;;;1.21;84.48;100151.00;1795539;79;21505;-79
2021/12/18 04:04:04;;;;;;;6.47;3.37;;;;;;;1.23;84.72;100155.14;1794149;79;21063;-77
2021/12/18 04:06:31;;;;;;;8.33;5.05;;;;;;;1.19;85.29;100143.75;1791598;80;20914;-77
2021/12/18 04:08:58;;;;;;;4.78;3.33;;;;;;;1.20;85.56;100146.20;1823339;78;21038;-77
2021/12/18 04:11:25;;;;;;;5.08;3.70;;;;;;;1.22;85.65;100155.30;1813562;78;21038;-79
2021/12/18 04:13:52;;;;;;;6.30;4.40;;;;;;;1.22;85.58;100146.86;1797301;79;21004;-77
2021/12/18 04:16:18;;;;;;;4.35;3.60;;;;;;;1.23;85.57;100145.87;1771103;79;21128;-77
2021/12/18 04:18:44;;;;;;;3.72;3.33;;;;;;;1.24;85.53;100151.99;1797080;79;20970;-79
2021/12/18 04:21:11;;;;;;;2.58;2.15;;;;;;;1.25;85.49;100161.56;1770612;79;21054;-81
2021/12/18 04:23:37;;;;;;;3.62;3.02;;;;;;;1.19;85.50;100163.63;1823780;78;20951;-82
2021/12/18 04:26:05;;;;;;;6.12;3.80;;;;;;;1.16;85.67;100160.81;1829845;78;21515;-82
2021/12/18 04:28:33;;;;;;;3.65;3.17;;;;;;;1.16;85.59;100163.95;1826320;78;21872;-84
2021/12/18 04:31:01;;;;;;;3.25;2.95;;;;;;;1.18;85.47;100165.94;1824871;78;21557;-81
2021/12/18 04:33:29;;;;;;;3.02;2.72;;;;;;;1.15;85.25;100192.80;1829878;78;20913;-79
2021/12/18 04:35:55;;;;;;;2.30;2.05;;;;;;;1.14;85.22;100166.80;1829887;78;21059;-80
2021/12/18 04:38:23;;;;;;;3.62;2.25;;;;;;;1.12;85.18;100170.61;1830378;78;20955;-78
2021/12/18 04:40:50;;;;;;;3.95;2.45;;;;;;;1.14;85.37;100166.80;1830224;78;21583;-79
2021/12/18 04:43:16;;;;;;;3.17;2.55;;;;;;;1.13;85.24;100175.75;1829349;78;21516;-80
2021/12/18 04:45:42;;;;;;;6.00;2.10;;;;;;;1.10;85.05;100172.64;1811817;78;20986;-79
2021/12/18 04:48:10;;;;;;;2.40;2.20;;;;;;;1.07;85.20;100169.82;1824779;78;21469;-81
2021/12/18 04:50:37;;;;;;;2.25;2.05;;;;;;;1.08;85.09;100165.35;1798403;78;21453;-80
2021/12/18 04:53:05;;;;;;;2.08;1.42;;;;;;;1.09;85.07;100180.25;1819801;78;21568;-79
2021/12/18 04:55:34;;;;;;;1.47;1.37;;;;;;;1.11;84.71;100195.45;1791504;79;20983;-79
2021/12/18 04:58:01;;;;;;;1.80;1.70;;;;;;;1.10;84.43;100184.55;1804749;78;20955;-79
2021/12/18 05:00:40;;;;;;;1.35;1.25;;;;;;;1.13;84.41;100190.81;1816634;78;21031;-79
2021/12/18 05:03:10;;;;;;;2.35;2.15;;;;;;;1.13;84.11;100186.34;1830146;78;21022;-77
2021/12/18 05:05:35;;;;;;;1.72;1.37;;;;;;;1.09;83.69;100196.97;1830161;78;21102;-76
2021/12/18 05:08:03;;;;;;;1.57;1.47;;;;;;;1.04;83.08;100203.80;1804462;78;20915;-76
2021/12/18 05:10:30;;;;;;;1.40;1.30;;;;;;;1.05;82.89;100196.17;1803754;78;21070;-81
2021/12/18 05:12:57;;;;;;;1.00;1.00;;;;;;;1.02;82.43;100210.58;1799884;78;21185;-81
2021/12/18 05:15:23;;;;;;;1.47;1.37;;;;;;;1.00;82.20;100198.03;1829839;77;21046;-79
2021/12/18 05:17:50;;;;;;;1.98;1.40;;;;;;;0.99;81.25;100222.03;1823679;78;21211;-81
2021/12/18 05:20:16;;;;;;;1.45;1.35;;;;;;;0.99;80.89;100212.27;1824021;78;21551;-81
2021/12/18 05:22:43;;;;;;;1.40;1.30;;;;;;;0.99;80.05;100224.18;1819001;78;21473;-76
2021/12/18 05:25:09;;;;;;;1.32;1.22;;;;;;;0.97;79.13;100237.25;1816960;78;21014;-78
2021/12/18 05:27:37;;;;;;;2.40;1.37;;;;;;;0.93;79.06;100217.42;1794312;79;20892;-82
2021/12/18 05:30:08;;;;;;;1.67;1.57;;;;;;;0.94;79.38;100231.82;1823434;78;21110;-80
2021/12/18 05:32:35;;;;;;;1.35;1.20;;;;;;;0.92;78.66;100238.28;1831481;78;20939;-75
2021/12/18 05:35:02;;;;;;;0.90;0.90;;;;;;;0.92;78.45;100251.02;1833029;78;20958;-81
2021/12/18 05:37:45;;;;;;;0.90;0.90;;;;;;;0.95;78.20;100231.33;1795196;78;20884;-77
2021/12/18 05:40:00;;;;;;;1.27;1.00;;;;;;;0.93;77.74;100245.23;1805978;78;21269;-82
2021/12/18 05:42:26;;;;;;;1.20;0.90;;;;;;;0.85;78.02;100247.43;1799400;79;21063;-82
2021/12/18 05:44:52;;;;;;;1.27;1.17;;;;;;;0.87;78.22;100256.01;1811360;79;21088;-81
2021/12/18 05:47:19;;;;;;;1.35;1.10;;;;;;;0.87;78.48;100252.87;1825145;78;20999;-78
2021/12/18 05:49:47;;;;;;;7.42;4.20;;;;;;;0.91;78.57;100248.07;1830064;78;20992;-77
2021/12/18 05:52:14;;;;;;;2.05;1.42;;;;;;;0.91;78.80;100263.95;1830084;78;20980;-74
2021/12/18 05:54:40;;;;;;;2.30;2.00;;;;;;;0.93;78.71;100266.41;1830094;78;21088;-80
2021/12/18 05:57:07;;;;;;;1.30;1.20;;;;;;;0.94;78.81;100264.09;1799415;78;20997;-82
2021/12/18 05:59:34;;;;;;;1.10;1.10;;;;;;;0.96;78.85;100262.91;1830258;78;20944;-78
2021/12/18 06:02:01;;;;;;;1.67;1.60;;;;;;;0.90;79.16;100264.95;1830079;78;21054;-79
2021/12/18 06:04:28;;;;;;;1.27;1.27;;;;;;;0.90;79.40;100265.45;1798285;78;20996;-81
2021/12/18 06:07:03;;;;;;;1.35;1.25;;;;;;;0.93;79.38;100269.06;1824427;78;21087;-83
2021/12/18 06:09:24;;;;;;;1.00;1.00;;;;;;;0.93;79.64;100274.35;1823727;78;20963;-82
2021/12/18 06:11:51;;;;;;;1.32;1.22;;;;;;;0.93;79.54;100269.06;1827476;78;21042;-85
2021/12/18 06:14:17;;;;;;;2.08;1.92;;;;;;;0.96;79.84;100275.35;1827602;77;21559;-84
2021/12/18 06:16:44;;;;;;;1.02;1.00;;;;;;;0.98;79.92;100286.08;1828013;77;20992;-85
2021/12/18 06:19:10;;;;;;;2.15;1.95;;;;;;;0.98;79.65;100283.44;1789736;79;21052;-84
2021/12/18 06:21:37;;;;;;;1.85;1.75;;;;;;;1.02;79.86;100282.58;1808766;79;20947;-82
2021/12/18 06:24:05;;;;;;;2.55;1.77;;;;;;;1.04;79.92;100285.89;1817787;78;20916;-83
2021/12/18 06:26:31;;;;;;;1.77;1.57;;;;;;;1.02;80.00;100282.09;1817876;78;21469;-84
2021/12/18 06:28:58;;;;;;;5.30;2.30;;;;;;;0.94;80.15;100275.52;1792364;78;21008;-82
2021/12/18 06:31:25;;;;;;;5.53;4.60;;;;;;;0.96;80.33;100281.97;1823064;78;21557;-83
2021/12/18 06:33:51;;;;;;;3.35;3.08;;;;;;;0.98;80.56;100283.44;1791165;79;20963;-82
2021/12/18 06:36:20;;;;;;;4.87;3.65;;;;;;;1.02;80.71;100279.44;1790976;79;21511;-81
2021/12/18 06:38:46;;;;;;;2.35;1.82;;;;;;;1.05;80.78;100279.60;1825196;78;21070;-80
2021/12/18 06:41:12;;;;;;;4.40;3.15;;;;;;;1.09;80.76;100280.91;1828855;78;20963;-81
2021/12/18 06:43:41;;;;;;;4.42;3.95;;;;;;;1.11;80.78;100285.51;1829874;78;20908;-80
2021/12/18 06:46:07;;;;;;;3.92;3.20;;;;;;;1.10;80.75;100281.23;1828183;78;20974;-80
2021/12/18 06:48:34;;;;;;;10.28;5.75;;;;;;;1.06;81.02;100283.38;1827651;78;21066;-83
2021/12/18 06:51:01;;;;;;;4.20;3.02;;;;;;;1.01;81.26;100295.00;1827543;78;21022;-79
2021/12/18 06:53:27;;;;;;;2.90;2.33;;;;;;;1.03;81.98;100295.66;1827071;78;21102;-77
2021/12/18 06:55:54;;;;;;;2.08;1.87;;;;;;;1.02;82.64;100294.00;1804368;78;21042;-82
2021/12/18 06:58:22;;;;;;;5.12;3.80;;;;;;;1.01;83.02;100295.52;1804779;78;20952;-84
2021/12/18 07:00:49;;;;;;;27.22;15.13;;;;;;;1.02;83.23;100301.95;1827740;78;21051;-85
2021/12/18 07:03:16;;;;;;;22.87;11.15;;;;;;;0.99;83.77;100291.71;1827856;78;21052;-83
2021/12/18 07:05:42;;;;;;;4.58;3.27;;;;;;;0.97;83.69;100307.43;1778075;78;21078;-86
2021/12/18 07:08:10;;;;;;;5.92;4.75;;;;;;;0.93;83.44;100310.11;1827406;78;21039;-84
2021/12/18 07:10:38;;;;;;;4.50;3.47;;;;;;;0.91;83.33;100309.47;1814195;78;21492;-81
2021/12/18 07:13:05;;;;;;;4.60;2.15;;;;;;;0.91;83.00;100305.00;1809051;79;21051;-82
2021/12/18 07:15:31;;;;;;;3.42;3.05;;;;;;;0.81;82.32;100313.65;1817148;79;21038;-82
2021/12/18 07:17:58;;;;;;;3.40;2.55;;;;;;;0.75;82.42;100303.23;1817120;79;20992;-84
2021/12/18 07:20:25;;;;;;;2.40;2.20;;;;;;;0.77;82.33;100313.64;1823938;78;21930;-82
2021/12/18 07:22:52;;;;;;;3.90;2.58;;;;;;;0.72;81.98;100301.44;1824719;78;21554;-79
2021/12/18 07:25:18;;;;;;;5.20;3.92;;;;;;;0.70;82.13;100315.33;1824018;78;21005;-79
2021/12/18 07:27:44;;;;;;;2.80;2.20;;;;;;;0.69;82.31;100318.97;1820148;78;20940;-83
2021/12/18 07:30:12;;;;;;;3.17;2.52;;;;;;;0.65;81.53;100312.38;1817203;78;20940;-81
2021/12/18 07:32:39;;;;;;;5.05;3.85;;;;;;;0.63;81.11;100327.09;1797638;78;21047;-83
2021/12/18 07:35:11;;;;;;;4.22;3.08;;;;;;;0.61;81.01;100321.65;1824661;78;21473;-84
2021/12/18 07:37:37;;;;;;;3.10;2.80;;;;;;;0.62;80.76;100316.69;1824735;78;21008;-86
2021/12/18 07:40:06;;;;;;;3.10;2.80;;;;;;;0.64;80.61;100333.21;1805358;78;20995;-88
2021/12/18 07:42:37;;;;;;;2.65;2.45;;;;;;;0.59;80.15;100324.95;1819043;78;20996;-87
2021/12/18 07:45:04;;;;;;;3.85;3.22;;;;;;;0.57;79.99;100336.22;1791703;78;21090;-87
2021/12/18 07:47:33;;;;;;;6.12;3.80;;;;;;;0.59;80.03;100324.45;1778218;80;20942;-92
2021/12/18 07:49:59;;;;;;;1.87;1.77;;;;;;;0.62;79.84;100333.41;1792558;80;21624;-81
2021/12/18 07:52:25;;;;;;;2.23;2.10;;;;;;;0.58;79.27;100322.80;1793349;80;21021;-80
2021/12/18 07:54:51;;;;;;;1.87;1.77;;;;;;;0.61;79.47;100343.66;1800427;78;21558;-79
2021/12/18 07:57:20;;;;;;;3.42;3.10;;;;;;;0.62;79.54;100332.08;1825383;78;21474;-82
2021/12/18 07:59:46;;;;;;;3.75;2.80;;;;;;;0.62;79.57;100336.55;1821280;78;20955;-84
2021/12/18 08:02:12;;;;;;;4.70;3.75;;;;;;;0.61;79.61;100339.69;1818504;78;20963;-82
2021/12/18 08:04:38;;;;;;;3.07;2.70;;;;;;;0.63;80.14;100356.70;1795712;78;20944;-80
2021/12/18 08:07:05;;;;;;;4.33;3.13;;;;;;;0.64;79.94;100343.80;1818437;78;20972;-76
2021/12/18 08:09:31;;;;;;;2.77;2.57;;;;;;;0.65;80.07;100338.84;1788423;80;21775;-78
2021/12/18 08:11:57;;;;;;;2.60;2.40;;;;;;;0.66;80.02;100333.88;1779034;80;20944;-80
2021/12/18 08:14:24;;;;;;;2.97;2.00;;;;;;;0.67;80.00;100328.39;1770646;79;20990;-78
2021/12/18 08:16:50;;;;;;;3.10;1.97;;;;;;;0.70;80.00;100332.54;1791559;78;21481;-77
2021/12/18 08:19:17;;;;;;;6.22;3.67;;;;;;;0.74;79.92;100341.79;1785680;80;21029;-82
2021/12/18 08:21:43;;;;;;;3.15;2.42;;;;;;;0.76;79.97;100336.66;1787295;80;21451;-78
2021/12/18 08:24:10;;;;;;;3.17;2.80;;;;;;;0.75;80.20;100325.74;1786749;80;20919;-76
2021/12/18 08:26:38;;;;;;;7.00;3.63;;;;;;;0.81;80.10;100326.39;1787955;78;21034;-77
2021/12/18 08:29:04;;;;;;;4.15;3.42;;;;;;;0.92;80.18;100334.92;1785110;79;20899;-76
2021/12/18 08:31:30;;;;;;;8.25;4.70;;;;;;;0.96;79.73;100332.29;1786943;80;20985;-78
2021/12/18 08:34:00;;;;;;;3.85;3.12;;;;;;;0.99;79.56;100313.39;1787011;80;21152;-80
2021/12/18 08:36:29;;;;;;;3.30;2.58;;;;;;;0.96;79.33;100321.17;1785929;80;20968;-85
2021/12/18 08:39:01;;;;;;;5.15;2.67;;;;;;;0.97;79.44;100319.34;1785913;80;20967;-85
2021/12/18 08:41:28;;;;;;;6.58;4.10;;;;;;;0.92;79.39;100309.27;1768460;80;21039;-77
2021/12/18 08:43:54;;;;;;;5.67;3.55;;;;;;;0.92;79.77;100319.04;1765604;79;21021;-80
2021/12/18 08:46:21;;;;;;;9.15;5.90;;;;;;;0.88;80.03;100315.92;1796129;79;22592;-79
2021/12/18 08:48:52;;;;;;;7.10;3.60;;;;;;;0.89;80.18;100316.25;1794031;79;21706;-81
2021/12/18 08:51:16;;;;;;;3.27;2.98;;;;;;;0.91;80.16;100316.92;1784609;79;21037;-80
2021/12/18 08:53:43;;;;;;;7.37;3.95;;;;;;;0.91;80.24;100312.95;1817777;79;20991;-80
2021/12/18 08:56:13;;;;;;;4.15;3.50;;;;;;;0.92;80.29;100303.15;1818443;79;20944;-84
2021/12/18 08:58:43;;;;;;;6.75;4.83;;;;;;;0.94;80.45;100311.77;1815108;79;20931;-86
2021/12/18 09:01:12;;;;;;;8.30;5.90;;;;;;;0.96;80.54;100309.78;1810432;78;20927;-79
2021/12/18 09:03:41;;;;;;;6.15;4.35;;;;;;;1.00;80.72;100314.55;1785942;79;21008;-84
2021/12/18 09:06:10;;;;;;;7.05;5.17;;;;;;;1.03;80.68;100304.93;1807955;79;21521;-84
2021/12/18 09:08:39;;;;;;;7.95;5.60;;;;;;;1.01;80.58;100308.23;1817927;78;21081;-79
2021/12/18 09:11:08;;;;;;;7.15;6.17;;;;;;;0.95;80.80;100306.30;1819819;77;21479;-83
2021/12/18 09:13:43;;;;;;;7.60;5.47;;;;;;;0.97;81.24;100317.53;1808485;78;20957;-80
2021/12/18 09:16:12;;;;;;;11.75;3.72;;;;;;;1.02;81.32;100311.22;1819835;78;21005;-82
2021/12/18 09:18:39;;;;;;;7.25;3.42;;;;;;;1.04;81.50;100314.53;1790944;79;21507;-81
2021/12/18 09:21:06;;;;;;;10.30;5.47;;;;;;;0.98;81.47;100312.56;1809984;78;21041;-78
2021/12/18 09:23:32;;;;;;;9.28;5.40;;;;;;;0.95;81.95;100304.98;1830065;78;21068;-78
2021/12/18 09:26:05;;;;;;;5.80;4.00;;;;;;;0.99;82.14;100308.09;1791890;78;21011;-79
2021/12/18 09:28:32;;;;;;;5.10;3.75;;;;;;;1.04;82.18;100307.91;1792565;78;21083;-76
2021/12/18 09:31:02;;;;;;;5.95;4.65;;;;;;;1.07;82.21;100306.23;1791618;78;21760;-79
2021/12/18 09:33:29;;;;;;;4.55;3.98;;;;;;;1.07;82.32;100302.75;1791687;80;20988;-81
2021/12/18 09:36:01;;;;;;;6.72;3.25;;;;;;;1.10;82.57;100312.52;1791576;80;21214;-85
2021/12/18 09:38:33;;;;;;;4.55;4.10;;;;;;;1.14;82.70;100308.52;1808469;78;20994;-83
2021/12/18 09:41:03;;;;;;;4.33;3.00;;;;;;;1.11;83.71;100297.42;1798523;78;21050;-84
2021/12/18 09:43:33;;;;;;;4.50;2.47;;;;;;;1.10;83.71;100303.25;1805090;78;21035;-83
2021/12/18 09:46:08;;;;;;;7.47;3.10;;;;;;;1.09;84.22;100305.57;1820537;78;21017;-82
2021/12/18 09:48:37;;;;;;;4.03;3.62;;;;;;;0.96;85.31;100290.72;1794604;78;21032;-84
2021/12/18 09:51:08;;;;;;;3.98;3.10;;;;;;;0.95;85.51;100286.94;1821312;78;20896;-90
2021/12/18 09:53:36;;;;;;;4.03;2.77;;;;;;;0.95;85.86;100286.44;1825932;78;22082;-79
2021/12/18 09:56:05;;;;;;;2.40;2.05;;;;;;;0.95;86.21;100276.34;1804973;78;21620;-77
2021/12/18 09:58:33;;;;;;;1.77;1.67;;;;;;;0.85;86.30;100284.50;1830212;78;21035;-80
2021/12/18 10:01:02;;;;;;;2.00;1.90;;;;;;;0.77;86.37;100278.72;1820875;78;21713;-80
2021/12/18 10:03:49;;;;;;;3.17;2.35;;;;;;;0.79;86.62;100283.36;1797887;79;21260;-79
2021/12/18 10:06:41;;;;;;;2.98;2.65;;;;;;;0.87;86.89;100271.89;1771693;79;21121;-75
2021/12/18 10:09:14;;;;;;;3.10;2.90;;;;;;;0.91;86.47;100275.88;1823643;77;21614;-78
2021/12/18 10:11:51;;;;;;;3.00;2.70;;;;;;;0.95;86.29;100272.38;1831152;78;21051;-78
2021/12/18 10:14:40;;;;;;;5.20;4.25;;;;;;;1.02;86.07;100277.28;1829977;78;21144;-78
2021/12/18 10:17:24;;;;;;;7.03;5.40;;;;;;;1.06;85.89;100264.84;1823945;78;20955;-78
2021/12/18 10:20:19;;;;;;;8.33;6.25;;;;;;;1.09;85.69;100253.92;1830027;78;21477;-75
2021/12/18 10:22:54;;;;;;;5.92;4.60;;;;;;;1.17;85.71;100253.86;1831857;78;21066;-78
2021/12/18 10:25:23;;;;;;;4.25;3.85;;;;;;;1.25;85.50;100252.47;1829860;78;21028;-76
2021/12/18 10:28:21;;;;;;;8.08;5.03;;;;;;;1.28;85.19;100244.19;1829601;78;21070;-78
2021/12/18 10:30:53;;;;;;;4.53;3.80;;;;;;;1.27;85.15;100242.53;1830319;78;20999;-77
2021/12/18 10:33:22;;;;;;;2.37;2.05;;;;;;;1.24;85.20;100238.09;1830484;78;20933;-79
2021/12/18 10:35:54;;;;;;;3.10;2.83;;;;;;;1.20;85.31;100234.16;1779809;78;21015;-75
2021/12/18 10:38:48;;;;;;;2.40;2.20;;;;;;;1.19;85.62;100241.27;1779623;78;21568;-78
2021/12/18 10:41:28;;;;;;;2.35;2.05;;;;;;;1.19;85.99;100245.25;1791808;80;21111;-77
2021/12/18 10:44:07;;;;;;;3.50;2.12;;;;;;;1.17;86.52;100233.99;1791429;80;21520;-77
2021/12/18 10:46:45;;;;;;;4.75;1.90;;;;;;;1.17;86.95;100234.48;1786156;79;21393;-78
2021/12/18 10:49:16;;;;;;;2.60;2.40;;;;;;;1.15;87.36;100232.53;1822730;78;20956;-76
2021/12/18 10:51:45;;;;;;;4.67;1.92;;;;;;;1.11;87.72;100239.98;1830309;78;20977;-75
2021/12/18 10:54:25;;;;;;;3.90;3.37;;;;;;;1.07;88.13;100229.91;1804395;78;21447;-77
2021/12/18 10:56:52;;;;;;;6.37;5.30;;;;;;;1.00;88.51;100231.62;1802003;78;20976;-75
2021/12/18 10:59:31;;;;;;;4.28;3.20;;;;;;;0.92;89.12;100235.13;1791533;80;20948;-75
2021/12/18 11:02:02;;;;;;;6.97;5.00;;;;;;;0.78;89.71;100234.05;1792311;80;21627;-78
2021/12/18 11:04:33;;;;;;;11.33;9.30;;;;;;;0.70;90.41;100230.63;1774112;78;21066;-81
2021/12/18 11:07:26;;;;;;;8.15;4.72;;;;;;;0.66;90.62;100229.33;1831024;78;21147;-79
2021/12/18 11:10:13;;;;;;;3.72;3.42;;;;;;;0.69;91.08;100232.45;1830572;77;20955;-85
2021/12/18 11:15:17;;;;;;;4.45;3.98;;;;;;;0.74;91.74;100230.11;1822002;78;21181;-80
2021/12/18 11:17:46;;;;;;;3.97;3.57;;;;;;;0.76;92.23;100233.91;1832064;78;20932;-78
2021/12/18 11:20:13;;;;;;;3.42;3.22;;;;;;;0.75;92.27;100233.58;1804664;78;21649;-77
2021/12/18 11:22:40;;;;;;;3.80;2.98;;;;;;;0.78;92.53;100231.41;1830237;78;21650;-78
2021/12/18 11:25:09;;;;;;;2.87;2.23;;;;;;;0.82;92.62;100230.05;1827604;78;21691;-81
2021/12/18 11:27:36;;;;;;;2.15;2.00;;;;;;;0.82;92.67;100222.11;1827569;78;21098;-80
2021/12/18 11:30:13;;;;;;;2.45;2.25;;;;;;;0.84;92.78;100218.80;1823380;78;21073;-82
2021/12/18 11:32:44;;;;;;;4.42;2.27;;;;;;;0.84;92.77;100212.68;1825338;78;21088;-78
2021/12/18 11:35:20;;;;;;;2.20;2.00;;;;;;;0.85;92.92;100210.36;1830131;78;20931;-79
2021/12/18 11:38:04;;;;;;;3.40;2.75;;;;;;;0.87;93.05;100209.67;1790888;78;21102;-79
2021/12/18 11:40:37;;;;;;;5.30;3.80;;;;;;;0.90;93.13;100206.70;1827412;77;21002;-81
2021/12/18 11:43:25;;;;;;;4.50;3.72;;;;;;;0.94;93.09;100212.45;1824201;78;21003;-82
2021/12/18 11:45:54;;;;;;;4.93;4.53;;;;;;;0.95;93.00;100212.79;1825281;78;21977;-80
2021/12/18 11:48:52;;;;;;;8.95;4.42;;;;;;;0.97;92.93;100201.50;1829463;78;37465;-83
2021/12/18 11:51:18;;;;;;;2.22;1.95;;;;;;;1.02;93.01;100203.13;1792433;79;21097;-81
2021/12/18 11:53:46;;;;;;;14.47;8.83;;;;;;;0.99;93.13;100201.67;1817739;78;21013;-80
2021/12/18 11:56:14;;;;;;;6.37;3.87;;;;;;;0.94;92.86;100198.72;1816852;78;20878;-82
2021/12/18 11:58:43;;;;;;;5.42;4.92;;;;;;;0.88;92.74;100203.38;1819091;78;21607;-76
2021/12/18 12:01:21;;;;;;;4.83;3.30;;;;;;;0.86;92.76;100202.75;1827257;78;21532;-80
2021/12/18 12:04:11;;;;;;;13.67;7.17;;;;;;;0.80;92.72;100206.09;1810447;78;21487;-79
2021/12/18 12:06:41;;;;;;;7.28;3.83;;;;;;;0.83;92.91;100199.11;1830123;78;21017;-79
2021/12/18 12:09:32;;;;;;;6.73;4.40;;;;;;;0.83;92.77;100209.20;1831964;78;20939;-78
2021/12/18 12:12:00;;;;;;;9.17;5.07;;;;;;;0.84;92.64;100200.27;1818508;78;21101;-81
2021/12/18 12:14:32;;;;;;;6.75;5.55;;;;;;;0.87;92.73;100200.41;1823125;78;21555;-89
2021/12/18 12:17:25;;;;;;;5.30;3.77;;;;;;;0.91;92.72;100196.44;1807788;77;21070;-84
2021/12/18 12:20:02;;;;;;;5.03;3.92;;;;;;;0.92;92.35;100190.61;1841469;77;21309;-86
2021/12/18 12:22:48;;;;;;;3.20;2.90;;;;;;;0.93;91.93;100197.06;1830434;77;21526;-87
2021/12/18 12:25:41;;;;;;;2.90;2.20;;;;;;;0.97;91.81;100196.20;1805196;78;22908;-89